Terminal Aerodrome Forecast
Issued by NWS Corpus Christi, TX

Home | Current Version | Previous Version | Text Only | Print | Product List | Glossary On
Versions: 1 2 3 4 5 6 7 8 9 10 11 12 13 14 15
228
FTUS44 KCRP 222330
TAFCRP
TAF
KCRP 222330Z 2300/2324 11015KT P6SM SCT035
     FM230200 13006KT P6SM FEW025
     FM230700 VRB04KT P6SM FEW025
     FM231900 10012G18KT P6SM SCT035=

USA.gov is the U.S. government's official web portal to all federal, state and local government web resources and services.